sensor_id;sensor_type;location;lat;lon;timestamp;P1;durP1;ratioP1;P2;durP2;ratioP2
19560;SDS011;9927;47.792;10.616;2023-11-21T04:02:34;3.03;;;2.83;;
19560;SDS011;9927;47.792;10.616;2023-11-21T04:05:01;2.90;;;2.70;;
19560;SDS011;9927;47.792;10.616;2023-11-21T04:07:30;3.07;;;2.80;;
19560;SDS011;9927;47.792;10.616;2023-11-21T04:09:57;2.70;;;2.60;;
19560;SDS011;9927;47.792;10.616;2023-11-21T04:12:24;6.07;;;2.97;;
19560;SDS011;9927;47.792;10.616;2023-11-21T04:14:51;3.07;;;2.80;;
19560;SDS011;9927;47.792;10.616;2023-11-21T04:17:21;3.30;;;3.00;;
19560;SDS011;9927;47.792;10.616;2023-11-21T04:19:49;3.43;;;2.93;;
19560;SDS011;9927;47.792;10.616;2023-11-21T04:22:16;3.00;;;2.80;;
19560;SDS011;9927;47.792;10.616;2023-11-21T04:24:43;3.10;;;2.70;;
19560;SDS011;9927;47.792;10.616;2023-11-21T04:27:10;6.20;;;3.17;;
19560;SDS011;9927;47.792;10.616;2023-11-21T04:29:38;3.17;;;2.83;;
19560;SDS011;9927;47.792;10.616;2023-11-21T04:32:05;3.20;;;2.93;;
19560;SDS011;9927;47.792;10.616;2023-11-21T04:34:32;3.10;;;2.87;;
19560;SDS011;9927;47.792;10.616;2023-11-21T04:37:01;3.00;;;2.80;;
19560;SDS011;9927;47.792;10.616;2023-11-21T04:39:30;3.33;;;3.10;;
19560;SDS011;9927;47.792;10.616;2023-11-21T04:41:58;3.20;;;2.90;;
19560;SDS011;9927;47.792;10.616;2023-11-21T04:44:25;4.17;;;2.87;;
19560;SDS011;9927;47.792;10.616;2023-11-21T04:46:52;3.00;;;2.80;;
19560;SDS011;9927;47.792;10.616;2023-11-21T04:49:19;3.53;;;3.23;;
19560;SDS011;9927;47.792;10.616;2023-11-21T04:51:47;3.57;;;3.30;;
19560;SDS011;9927;47.792;10.616;2023-11-21T04:54:14;4.67;;;3.20;;
19560;SDS011;9927;47.792;10.616;2023-11-21T04:56:41;4.53;;;3.47;;
19560;SDS011;9927;47.792;10.616;2023-11-21T04:59:08;5.27;;;3.50;;
19560;SDS011;9927;47.792;10.616;2023-11-21T05:01:36;3.37;;;3.07;;
19560;SDS011;9927;47.792;10.616;2023-11-21T05:04:03;3.30;;;3.10;;
19560;SDS011;9927;47.792;10.616;2023-11-21T05:06:33;3.03;;;2.80;;
19560;SDS011;9927;47.792;10.616;2023-11-21T05:09:00;3.30;;;3.00;;
19560;SDS011;9927;47.792;10.616;2023-11-21T05:11:27;3.33;;;3.07;;
19560;SDS011;9927;47.792;10.616;2023-11-21T05:13:55;3.13;;;2.83;;
19560;SDS011;9927;47.792;10.616;2023-11-21T05:16:25;3.77;;;3.00;;
19560;SDS011;9927;47.792;10.616;2023-11-21T05:18:54;5.70;;;3.13;;
19560;SDS011;9927;47.792;10.616;2023-11-21T05:21:27;3.37;;;3.07;;
19560;SDS011;9927;47.792;10.616;2023-11-21T05:23:56;3.27;;;2.93;;
19560;SDS011;9927;47.792;10.616;2023-11-21T05:26:23;3.30;;;3.00;;
19560;SDS011;9927;47.792;10.616;2023-11-21T05:28:51;3.20;;;2.93;;
19560;SDS011;9927;47.792;10.616;2023-11-21T05:31:18;3.67;;;3.00;;
19560;SDS011;9927;47.792;10.616;2023-11-21T05:33:46;3.43;;;2.83;;
19560;SDS011;9927;47.792;10.616;2023-11-21T05:36:13;3.13;;;3.00;;
19560;SDS011;9927;47.792;10.616;2023-11-21T05:38:40;3.00;;;2.80;;
19560;SDS011;9927;47.792;10.616;2023-11-21T05:41:08;3.17;;;2.97;;
19560;SDS011;9927;47.792;10.616;2023-11-21T05:43:37;3.00;;;2.80;;
19560;SDS011;9927;47.792;10.616;2023-11-21T05:46:05;2.97;;;2.87;;
19560;SDS011;9927;47.792;10.616;2023-11-21T05:48:34;3.40;;;3.20;;
19560;SDS011;9927;47.792;10.616;2023-11-21T05:51:04;3.30;;;3.20;;
19560;SDS011;9927;47.792;10.616;2023-11-21T05:53:33;3.60;;;3.13;;
19560;SDS011;9927;47.792;10.616;2023-11-21T05:56:00;2.90;;;2.80;;
19560;SDS011;9927;47.792;10.616;2023-11-21T05:58:27;3.17;;;2.90;;
19560;SDS011;9927;47.792;10.616;2023-11-21T06:00:55;3.03;;;2.93;;
19560;SDS011;9927;47.792;10.616;2023-11-21T06:03:22;3.00;;;2.90;;
19560;SDS011;9927;47.792;10.616;2023-11-21T06:05:50;3.93;;;3.63;;
19560;SDS011;9927;47.792;10.616;2023-11-21T06:08:17;3.20;;;3.10;;
19560;SDS011;9927;47.792;10.616;2023-11-21T06:10:44;3.13;;;2.93;;
19560;SDS011;9927;47.792;10.616;2023-11-21T06:13:11;2.97;;;2.90;;
19560;SDS011;9927;47.792;10.616;2023-11-21T06:15:38;3.10;;;3.00;;
19560;SDS011;9927;47.792;10.616;2023-11-21T06:18:06;2.97;;;2.83;;
19560;SDS011;9927;47.792;10.616;2023-11-21T06:20:41;3.07;;;2.97;;
19560;SDS011;9927;47.792;10.616;2023-11-21T06:23:08;3.00;;;2.90;;
19560;SDS011;9927;47.792;10.616;2023-11-21T06:25:36;3.00;;;2.90;;
19560;SDS011;9927;47.792;10.616;2023-11-21T06:28:03;2.93;;;2.80;;
19560;SDS011;9927;47.792;10.616;2023-11-21T06:30:31;3.10;;;3.00;;
19560;SDS011;9927;47.792;10.616;2023-11-21T06:32:58;3.50;;;3.30;;
19560;SDS011;9927;47.792;10.616;2023-11-21T06:35:26;3.20;;;3.00;;
19560;SDS011;9927;47.792;10.616;2023-11-21T06:37:56;3.07;;;2.90;;
19560;SDS011;9927;47.792;10.616;2023-11-21T06:40:24;3.23;;;3.00;;
19560;SDS011;9927;47.792;10.616;2023-11-21T06:42:51;3.10;;;3.00;;
19560;SDS011;9927;47.792;10.616;2023-11-21T06:45:18;3.60;;;3.30;;
19560;SDS011;9927;47.792;10.616;2023-11-21T06:47:47;3.30;;;3.20;;
19560;SDS011;9927;47.792;10.616;2023-11-21T06:50:15;2.63;;;2.53;;
19560;SDS011;9927;47.792;10.616;2023-11-21T06:52:42;2.80;;;2.70;;
19560;SDS011;9927;47.792;10.616;2023-11-21T06:55:11;2.93;;;2.83;;
19560;SDS011;9927;47.792;10.616;2023-11-21T06:57:38;3.00;;;2.90;;
19560;SDS011;9927;47.792;10.616;2023-11-21T07:00:06;3.17;;;3.00;;
19560;SDS011;9927;47.792;10.616;2023-11-21T07:02:36;3.07;;;2.97;;
19560;SDS011;9927;47.792;10.616;2023-11-21T07:05:04;4.27;;;3.90;;
19560;SDS011;9927;47.792;10.616;2023-11-21T07:07:32;3.70;;;3.60;;
19560;SDS011;9927;47.792;10.616;2023-11-21T07:10:02;3.47;;;3.17;;
19560;SDS011;9927;47.792;10.616;2023-11-21T07:12:30;4.50;;;4.10;;
19560;SDS011;9927;47.792;10.616;2023-11-21T07:14:58;3.27;;;3.17;;
19560;SDS011;9927;47.792;10.616;2023-11-21T07:17:26;3.60;;;3.40;;
19560;SDS011;9927;47.792;10.616;2023-11-21T07:19:54;3.40;;;3.30;;
19560;SDS011;9927;47.792;10.616;2023-11-21T07:22:22;3.10;;;3.00;;
19560;SDS011;9927;47.792;10.616;2023-11-21T07:24:49;3.50;;;3.30;;
19560;SDS011;9927;47.792;10.616;2023-11-21T07:27:19;3.30;;;3.20;;
19560;SDS011;9927;47.792;10.616;2023-11-21T07:29:47;3.23;;;3.13;;
19560;SDS011;9927;47.792;10.616;2023-11-21T07:32:15;3.67;;;3.53;;
19560;SDS011;9927;47.792;10.616;2023-11-21T07:34:42;3.50;;;3.30;;
19560;SDS011;9927;47.792;10.616;2023-11-21T07:37:10;3.50;;;3.40;;
19560;SDS011;9927;47.792;10.616;2023-11-21T07:39:37;3.60;;;3.40;;
19560;SDS011;9927;47.792;10.616;2023-11-21T07:42:08;3.20;;;3.00;;
19560;SDS011;9927;47.792;10.616;2023-11-21T07:44:36;3.30;;;3.20;;
19560;SDS011;9927;47.792;10.616;2023-11-21T07:47:03;3.60;;;3.40;;
19560;SDS011;9927;47.792;10.616;2023-11-21T07:49:31;3.20;;;3.10;;
19560;SDS011;9927;47.792;10.616;2023-11-21T07:51:58;3.03;;;2.93;;
19560;SDS011;9927;47.792;10.616;2023-11-21T07:54:26;2.80;;;2.70;;
19560;SDS011;9927;47.792;10.616;2023-11-21T07:56:53;3.30;;;3.20;;
19560;SDS011;9927;47.792;10.616;2023-11-21T07:59:20;3.07;;;2.87;;
19560;SDS011;9927;47.792;10.616;2023-11-21T08:01:47;3.10;;;3.00;;
19560;SDS011;9927;47.792;10.616;2023-11-21T08:04:15;3.13;;;2.90;;
19560;SDS011;9927;47.792;10.616;2023-11-21T08:06:42;2.80;;;2.70;;
19560;SDS011;9927;47.792;10.616;2023-11-21T08:09:09;2.90;;;2.70;;
19560;SDS011;9927;47.792;10.616;2023-11-21T08:11:39;2.80;;;2.70;;
19560;SDS011;9927;47.792;10.616;2023-11-21T08:14:06;2.70;;;2.60;;
19560;SDS011;9927;47.792;10.616;2023-11-21T08:16:33;2.70;;;2.60;;
19560;SDS011;9927;47.792;10.616;2023-11-21T08:19:01;2.60;;;2.50;;
19560;SDS011;9927;47.792;10.616;2023-11-21T08:21:29;3.13;;;2.93;;
19560;SDS011;9927;47.792;10.616;2023-11-21T08:23:56;3.05;;;2.80;;
19560;SDS011;9927;47.792;10.616;2023-11-21T08:26:24;3.00;;;2.83;;
19560;SDS011;9927;47.792;10.616;2023-11-21T08:28:51;2.90;;;2.70;;
19560;SDS011;9927;47.792;10.616;2023-11-21T08:31:24;2.77;;;2.67;;
19560;SDS011;9927;47.792;10.616;2023-11-21T08:33:52;2.60;;;2.50;;
19560;SDS011;9927;47.792;10.616;2023-11-21T08:36:22;2.93;;;2.80;;
19560;SDS011;9927;47.792;10.616;2023-11-21T08:38:50;2.80;;;2.70;;
19560;SDS011;9927;47.792;10.616;2023-11-21T08:41:21;3.07;;;2.80;;
19560;SDS011;9927;47.792;10.616;2023-11-21T08:43:51;2.97;;;2.87;;
19560;SDS011;9927;47.792;10.616;2023-11-21T08:46:19;2.80;;;2.70;;
19560;SDS011;9927;47.792;10.616;2023-11-21T08:48:47;3.07;;;2.90;;
19560;SDS011;9927;47.792;10.616;2023-11-21T08:51:15;2.80;;;2.70;;
19560;SDS011;9927;47.792;10.616;2023-11-21T08:53:43;2.80;;;2.70;;
19560;SDS011;9927;47.792;10.616;2023-11-21T08:56:13;3.00;;;2.80;;
19560;SDS011;9927;47.792;10.616;2023-11-21T08:58:41;6.03;;;3.20;;
19560;SDS011;9927;47.792;10.616;2023-11-21T09:01:08;2.80;;;2.70;;
19560;SDS011;9927;47.792;10.616;2023-11-21T09:03:35;2.93;;;2.53;;
19560;SDS011;9927;47.792;10.616;2023-11-21T09:06:03;2.80;;;2.70;;
19560;SDS011;9927;47.792;10.616;2023-11-21T09:08:31;2.83;;;2.73;;
19560;SDS011;9927;47.792;10.616;2023-11-21T09:10:58;2.87;;;2.77;;
19560;SDS011;9927;47.792;10.616;2023-11-21T09:13:26;2.60;;;2.60;;
19560;SDS011;9927;47.792;10.616;2023-11-21T09:15:54;3.47;;;3.23;;
19560;SDS011;9927;47.792;10.616;2023-11-21T09:18:21;2.80;;;2.70;;
19560;SDS011;9927;47.792;10.616;2023-11-21T09:20:49;2.30;;;2.30;;
19560;SDS011;9927;47.792;10.616;2023-11-21T09:23:16;2.70;;;2.60;;
19560;SDS011;9927;47.792;10.616;2023-11-21T09:25:43;2.60;;;2.50;;
19560;SDS011;9927;47.792;10.616;2023-11-21T09:28:13;2.60;;;2.50;;
19560;SDS011;9927;47.792;10.616;2023-11-21T09:30:40;2.53;;;2.53;;
19560;SDS011;9927;47.792;10.616;2023-11-21T09:33:08;2.73;;;2.50;;
19560;SDS011;9927;47.792;10.616;2023-11-21T09:35:38;2.50;;;2.40;;
19560;SDS011;9927;47.792;10.616;2023-11-21T09:38:05;2.60;;;2.50;;
19560;SDS011;9927;47.792;10.616;2023-11-21T09:40:37;2.77;;;2.67;;
19560;SDS011;9927;47.792;10.616;2023-11-21T09:43:38;2.55;;;2.50;;
19560;SDS011;9927;47.792;10.616;2023-11-21T09:45:59;2.70;;;2.60;;
19560;SDS011;9927;47.792;10.616;2023-11-21T09:48:29;2.70;;;2.60;;
19560;SDS011;9927;47.792;10.616;2023-11-21T09:50:57;2.70;;;2.60;;
19560;SDS011;9927;47.792;10.616;2023-11-21T09:53:26;2.50;;;2.40;;
19560;SDS011;9927;47.792;10.616;2023-11-21T09:55:56;2.60;;;2.50;;
19560;SDS011;9927;47.792;10.616;2023-11-21T09:58:24;2.30;;;2.30;;
19560;SDS011;9927;47.792;10.616;2023-11-21T10:00:55;2.40;;;2.40;;
19560;SDS011;9927;47.792;10.616;2023-11-21T10:03:26;2.40;;;2.40;;
19560;SDS011;9927;47.792;10.616;2023-11-21T10:05:53;2.40;;;2.40;;
19560;SDS011;9927;47.792;10.616;2023-11-21T10:08:27;2.83;;;2.73;;
19560;SDS011;9927;47.792;10.616;2023-11-21T10:11:12;2.57;;;2.50;;
19560;SDS011;9927;47.792;10.616;2023-11-21T10:13:42;2.60;;;2.60;;
19560;SDS011;9927;47.792;10.616;2023-11-21T10:16:13;2.40;;;2.40;;
19560;SDS011;9927;47.792;10.616;2023-11-21T10:18:45;2.50;;;2.50;;
19560;SDS011;9927;47.792;10.616;2023-11-21T10:21:13;2.60;;;2.47;;
19560;SDS011;9927;47.792;10.616;2023-11-21T10:23:41;2.43;;;2.43;;
19560;SDS011;9927;47.792;10.616;2023-11-21T10:26:11;2.60;;;2.50;;
19560;SDS011;9927;47.792;10.616;2023-11-21T10:29:00;2.40;;;2.40;;
19560;SDS011;9927;47.792;10.616;2023-11-21T10:31:30;2.30;;;2.30;;
19560;SDS011;9927;47.792;10.616;2023-11-21T10:34:13;2.60;;;2.60;;
19560;SDS011;9927;47.792;10.616;2023-11-21T10:36:42;2.60;;;2.50;;
19560;SDS011;9927;47.792;10.616;2023-11-21T10:39:13;2.60;;;2.57;;
19560;SDS011;9927;47.792;10.616;2023-11-21T10:41:47;4.15;;;2.60;;
19560;SDS011;9927;47.792;10.616;2023-11-21T10:44:15;2.70;;;2.60;;
19560;SDS011;9927;47.792;10.616;2023-11-21T10:46:54;2.15;;;2.15;;
19560;SDS011;9927;47.792;10.616;2023-11-21T10:49:26;2.70;;;2.50;;
19560;SDS011;9927;47.792;10.616;2023-11-21T10:51:54;2.53;;;2.43;;
19560;SDS011;9927;47.792;10.616;2023-11-21T10:54:23;4.20;;;2.40;;
19560;SDS011;9927;47.792;10.616;2023-11-21T10:57:01;3.20;;;3.10;;
19560;SDS011;9927;47.792;10.616;2023-11-21T10:59:31;2.90;;;2.90;;
19560;SDS011;9927;47.792;10.616;2023-11-21T11:02:00;3.70;;;3.50;;
19560;SDS011;9927;47.792;10.616;2023-11-21T11:04:30;2.80;;;2.80;;
19560;SDS011;9927;47.792;10.616;2023-11-21T11:06:59;2.77;;;2.67;;
19560;SDS011;9927;47.792;10.616;2023-11-21T11:09:32;2.40;;;2.40;;
19560;SDS011;9927;47.792;10.616;2023-11-21T11:12:03;2.60;;;2.50;;
19560;SDS011;9927;47.792;10.616;2023-11-21T11:14:32;2.70;;;2.60;;
19560;SDS011;9927;47.792;10.616;2023-11-21T11:17:00;2.85;;;2.80;;
19560;SDS011;9927;47.792;10.616;2023-11-21T11:19:29;2.80;;;2.80;;
19560;SDS011;9927;47.792;10.616;2023-11-21T11:25:49;2.80;;;2.70;;
19560;SDS011;9927;47.792;10.616;2023-11-21T11:28:10;3.42;;;3.25;;
19560;SDS011;9927;47.792;10.616;2023-11-21T11:30:53;2.88;;;2.78;;
19560;SDS011;9927;47.792;10.616;2023-11-21T11:38:32;2.60;;;2.60;;
19560;SDS011;9927;47.792;10.616;2023-11-21T11:41:03;2.80;;;2.70;;
19560;SDS011;9927;47.792;10.616;2023-11-21T11:43:32;2.53;;;2.53;;
19560;SDS011;9927;47.792;10.616;2023-11-21T11:46:02;2.73;;;2.63;;
19560;SDS011;9927;47.792;10.616;2023-11-21T11:48:32;2.72;;;2.63;;
19560;SDS011;9927;47.792;10.616;2023-11-21T11:51:05;2.80;;;2.70;;
19560;SDS011;9927;47.792;10.616;2023-11-21T11:53:43;2.60;;;2.50;;
19560;SDS011;9927;47.792;10.616;2023-11-21T11:56:33;2.53;;;2.53;;
19560;SDS011;9927;47.792;10.616;2023-11-21T11:59:03;2.47;;;2.47;;
19560;SDS011;9927;47.792;10.616;2023-11-21T12:01:32;2.53;;;2.50;;
19560;SDS011;9927;47.792;10.616;2023-11-21T12:06:47;2.60;;;2.60;;
19560;SDS011;9927;47.792;10.616;2023-11-21T12:09:17;2.50;;;2.50;;
19560;SDS011;9927;47.792;10.616;2023-11-21T12:11:48;2.60;;;2.60;;
19560;SDS011;9927;47.792;10.616;2023-11-21T12:14:16;2.58;;;2.58;;
19560;SDS011;9927;47.792;10.616;2023-11-21T12:16:44;2.70;;;2.60;;
19560;SDS011;9927;47.792;10.616;2023-11-21T12:19:12;2.70;;;2.70;;
19560;SDS011;9927;47.792;10.616;2023-11-21T12:21:40;2.67;;;2.67;;
19560;SDS011;9927;47.792;10.616;2023-11-21T12:24:11;2.75;;;2.65;;
19560;SDS011;9927;47.792;10.616;2023-11-21T12:26:41;2.53;;;2.42;;
19560;SDS011;9927;47.792;10.616;2023-11-21T12:29:09;3.25;;;3.05;;
19560;SDS011;9927;47.792;10.616;2023-11-21T12:31:37;2.92;;;2.80;;
19560;SDS011;9927;47.792;10.616;2023-11-21T12:34:05;2.60;;;2.60;;
19560;SDS011;9927;47.792;10.616;2023-11-21T12:36:34;2.97;;;2.90;;
19560;SDS011;9927;47.792;10.616;2023-11-21T12:39:02;2.80;;;2.70;;
19560;SDS011;9927;47.792;10.616;2023-11-21T12:41:30;2.90;;;2.80;;
19560;SDS011;9927;47.792;10.616;2023-11-21T12:43:57;2.70;;;2.60;;
19560;SDS011;9927;47.792;10.616;2023-11-21T12:46:25;2.47;;;2.47;;
19560;SDS011;9927;47.792;10.616;2023-11-21T12:48:56;2.88;;;2.67;;
19560;SDS011;9927;47.792;10.616;2023-11-21T12:51:24;2.63;;;2.63;;
19560;SDS011;9927;47.792;10.616;2023-11-21T12:53:52;2.70;;;2.60;;
19560;SDS011;9927;47.792;10.616;2023-11-21T12:56:21;2.70;;;2.70;;
19560;SDS011;9927;47.792;10.616;2023-11-21T12:58:50;2.85;;;2.80;;
19560;SDS011;9927;47.792;10.616;2023-11-21T13:01:21;2.83;;;2.72;;
19560;SDS011;9927;47.792;10.616;2023-11-21T13:03:56;2.42;;;2.42;;
19560;SDS011;9927;47.792;10.616;2023-11-21T13:06:25;2.55;;;2.55;;
19560;SDS011;9927;47.792;10.616;2023-11-21T13:08:54;2.15;;;2.10;;
19560;SDS011;9927;47.792;10.616;2023-11-21T13:11:24;2.03;;;2.00;;
19560;SDS011;9927;47.792;10.616;2023-11-21T13:13:53;2.00;;;2.00;;
19560;SDS011;9927;47.792;10.616;2023-11-21T13:16:20;2.10;;;2.10;;
19560;SDS011;9927;47.792;10.616;2023-11-21T13:18:48;2.22;;;2.00;;
19560;SDS011;9927;47.792;10.616;2023-11-21T13:21:15;1.90;;;1.90;;
19560;SDS011;9927;47.792;10.616;2023-11-21T13:23:44;2.00;;;2.00;;
19560;SDS011;9927;47.792;10.616;2023-11-21T13:26:13;2.20;;;2.20;;
19560;SDS011;9927;47.792;10.616;2023-11-21T13:28:42;1.90;;;1.90;;
19560;SDS011;9927;47.792;10.616;2023-11-21T13:31:13;2.00;;;2.00;;
19560;SDS011;9927;47.792;10.616;2023-11-21T13:33:55;2.20;;;2.10;;
19560;SDS011;9927;47.792;10.616;2023-11-21T13:36:25;2.10;;;2.10;;
19560;SDS011;9927;47.792;10.616;2023-11-21T13:38:53;2.10;;;2.10;;
19560;SDS011;9927;47.792;10.616;2023-11-21T13:41:21;2.00;;;2.00;;
19560;SDS011;9927;47.792;10.616;2023-11-21T13:43:55;2.20;;;2.20;;
19560;SDS011;9927;47.792;10.616;2023-11-21T13:46:30;2.30;;;2.30;;
19560;SDS011;9927;47.792;10.616;2023-11-21T13:49:04;2.03;;;2.03;;
19560;SDS011;9927;47.792;10.616;2023-11-21T13:51:36;2.40;;;2.30;;
19560;SDS011;9927;47.792;10.616;2023-11-21T13:54:15;2.50;;;2.40;;
19560;SDS011;9927;47.792;10.616;2023-11-21T13:56:42;2.20;;;2.20;;
19560;SDS011;9927;47.792;10.616;2023-11-21T13:59:12;2.05;;;2.05;;
19560;SDS011;9927;47.792;10.616;2023-11-21T14:01:50;2.40;;;2.30;;
19560;SDS011;9927;47.792;10.616;2023-11-21T14:04:26;2.30;;;2.30;;
19560;SDS011;9927;47.792;10.616;2023-11-21T14:06:57;2.30;;;2.30;;
19560;SDS011;9927;47.792;10.616;2023-11-21T14:09:27;2.50;;;2.40;;
19560;SDS011;9927;47.792;10.616;2023-11-21T14:12:10;2.50;;;2.40;;
19560;SDS011;9927;47.792;10.616;2023-11-21T14:14:39;2.20;;;2.20;;
19560;SDS011;9927;47.792;10.616;2023-11-21T14:17:06;2.10;;;2.10;;
19560;SDS011;9927;47.792;10.616;2023-11-21T14:19:34;2.20;;;2.10;;
19560;SDS011;9927;47.792;10.616;2023-11-21T14:22:06;2.10;;;2.10;;
19560;SDS011;9927;47.792;10.616;2023-11-21T14:24:37;2.40;;;2.30;;
19560;SDS011;9927;47.792;10.616;2023-11-21T14:27:04;2.20;;;2.20;;
19560;SDS011;9927;47.792;10.616;2023-11-21T14:29:32;2.60;;;2.60;;
19560;SDS011;9927;47.792;10.616;2023-11-21T14:32:05;2.70;;;2.70;;
19560;SDS011;9927;47.792;10.616;2023-11-21T14:34:34;2.67;;;2.67;;
19560;SDS011;9927;47.792;10.616;2023-11-21T14:37:01;3.40;;;3.40;;
19560;SDS011;9927;47.792;10.616;2023-11-21T14:39:31;3.07;;;3.07;;
19560;SDS011;9927;47.792;10.616;2023-11-21T14:42:04;2.73;;;2.73;;
19560;SDS011;9927;47.792;10.616;2023-11-21T14:44:34;2.50;;;2.50;;
19560;SDS011;9927;47.792;10.616;2023-11-21T14:47:05;2.70;;;2.60;;
19560;SDS011;9927;47.792;10.616;2023-11-21T14:49:42;2.80;;;2.80;;
19560;SDS011;9927;47.792;10.616;2023-11-21T14:52:25;2.73;;;2.73;;
19560;SDS011;9927;47.792;10.616;2023-11-21T14:55:03;3.23;;;3.13;;
19560;SDS011;9927;47.792;10.616;2023-11-21T14:57:49;3.67;;;3.50;;
19560;SDS011;9927;47.792;10.616;2023-11-21T15:00:18;3.00;;;2.80;;
19560;SDS011;9927;47.792;10.616;2023-11-21T15:03:18;3.00;;;3.00;;
19560;SDS011;9927;47.792;10.616;2023-11-21T15:06:12;3.30;;;3.20;;
19560;SDS011;9927;47.792;10.616;2023-11-21T15:08:50;4.00;;;3.77;;
19560;SDS011;9927;47.792;10.616;2023-11-21T15:11:34;4.00;;;3.80;;
19560;SDS011;9927;47.792;10.616;2023-11-21T15:14:01;3.87;;;3.77;;
19560;SDS011;9927;47.792;10.616;2023-11-21T15:16:34;5.20;;;4.90;;
19560;SDS011;9927;47.792;10.616;2023-11-21T15:19:10;4.30;;;4.10;;
19560;SDS011;9927;47.792;10.616;2023-11-21T15:21:39;3.70;;;3.60;;
19560;SDS011;9927;47.792;10.616;2023-11-21T15:24:06;4.00;;;3.80;;
19560;SDS011;9927;47.792;10.616;2023-11-21T15:26:33;5.20;;;4.90;;
19560;SDS011;9927;47.792;10.616;2023-11-21T15:29:01;4.97;;;4.67;;
19560;SDS011;9927;47.792;10.616;2023-11-21T15:31:28;4.80;;;4.40;;
19560;SDS011;9927;47.792;10.616;2023-11-21T15:33:55;4.03;;;3.83;;
19560;SDS011;9927;47.792;10.616;2023-11-21T15:36:26;3.53;;;3.33;;
19560;SDS011;9927;47.792;10.616;2023-11-21T15:38:54;3.10;;;2.90;;
19560;SDS011;9927;47.792;10.616;2023-11-21T15:41:21;2.97;;;2.93;;
19560;SDS011;9927;47.792;10.616;2023-11-21T15:43:49;3.20;;;3.00;;
19560;SDS011;9927;47.792;10.616;2023-11-21T15:46:17;3.67;;;3.57;;
19560;SDS011;9927;47.792;10.616;2023-11-21T15:48:46;16.50;;;12.23;;
19560;SDS011;9927;47.792;10.616;2023-11-21T15:51:17;8.70;;;7.90;;
19560;SDS011;9927;47.792;10.616;2023-11-21T15:53:44;13.10;;;10.93;;
19560;SDS011;9927;47.792;10.616;2023-11-21T15:56:11;12.27;;;11.07;;
19560;SDS011;9927;47.792;10.616;2023-11-21T15:58:39;7.10;;;6.60;;
19560;SDS011;9927;47.792;10.616;2023-11-21T16:01:09;5.93;;;5.50;;
19560;SDS011;9927;47.792;10.616;2023-11-21T16:03:39;5.07;;;4.80;;
19560;SDS011;9927;47.792;10.616;2023-11-21T16:06:06;5.43;;;5.03;;
19560;SDS011;9927;47.792;10.616;2023-11-21T16:08:36;4.97;;;4.67;;
19560;SDS011;9927;47.792;10.616;2023-11-21T16:11:03;5.20;;;4.80;;
19560;SDS011;9927;47.792;10.616;2023-11-21T16:13:31;5.53;;;5.13;;
19560;SDS011;9927;47.792;10.616;2023-11-21T16:16:00;4.80;;;4.50;;
19560;SDS011;9927;47.792;10.616;2023-11-21T16:18:28;4.60;;;4.40;;
19560;SDS011;9927;47.792;10.616;2023-11-21T16:20:55;4.80;;;4.47;;
19560;SDS011;9927;47.792;10.616;2023-11-21T16:23:22;5.17;;;4.80;;
19560;SDS011;9927;47.792;10.616;2023-11-21T16:25:50;5.17;;;4.87;;
19560;SDS011;9927;47.792;10.616;2023-11-21T16:28:22;5.50;;;5.10;;
19560;SDS011;9927;47.792;10.616;2023-11-21T16:30:49;5.77;;;5.37;;
19560;SDS011;9927;47.792;10.616;2023-11-21T16:33:17;4.93;;;4.63;;
19560;SDS011;9927;47.792;10.616;2023-11-21T16:35:46;5.97;;;5.53;;
19560;SDS011;9927;47.792;10.616;2023-11-21T16:38:14;6.93;;;6.20;;
19560;SDS011;9927;47.792;10.616;2023-11-21T16:40:42;6.47;;;5.87;;
19560;SDS011;9927;47.792;10.616;2023-11-21T16:43:12;8.03;;;7.20;;
19560;SDS011;9927;47.792;10.616;2023-11-21T16:45:39;9.40;;;7.47;;
19560;SDS011;9927;47.792;10.616;2023-11-21T16:48:06;8.07;;;7.10;;
19560;SDS011;9927;47.792;10.616;2023-11-21T16:50:34;8.77;;;8.07;;
19560;SDS011;9927;47.792;10.616;2023-11-21T16:53:02;7.23;;;6.63;;
19560;SDS011;9927;47.792;10.616;2023-11-21T16:55:29;7.30;;;6.60;;
19560;SDS011;9927;47.792;10.616;2023-11-21T16:57:56;7.10;;;6.40;;
19560;SDS011;9927;47.792;10.616;2023-11-21T17:00:23;6.53;;;6.00;;
19560;SDS011;9927;47.792;10.616;2023-11-21T17:02:51;6.57;;;5.97;;
19560;SDS011;9927;47.792;10.616;2023-11-21T17:05:19;6.30;;;5.80;;
19560;SDS011;9927;47.792;10.616;2023-11-21T17:07:46;7.43;;;6.80;;
19560;SDS011;9927;47.792;10.616;2023-11-21T17:10:14;8.57;;;6.80;;
19560;SDS011;9927;47.792;10.616;2023-11-21T17:12:41;6.47;;;5.97;;
19560;SDS011;9927;47.792;10.616;2023-11-21T17:15:09;6.10;;;5.60;;
19560;SDS011;9927;47.792;10.616;2023-11-21T17:17:36;6.57;;;6.10;;
19560;SDS011;9927;47.792;10.616;2023-11-21T17:20:04;6.30;;;5.90;;
19560;SDS011;9927;47.792;10.616;2023-11-21T17:22:36;5.20;;;4.90;;
19560;SDS011;9927;47.792;10.616;2023-11-21T17:25:04;5.50;;;5.10;;
19560;SDS011;9927;47.792;10.616;2023-11-21T17:27:31;4.80;;;4.50;;
19560;SDS011;9927;47.792;10.616;2023-11-21T17:29:58;4.60;;;4.40;;
19560;SDS011;9927;47.792;10.616;2023-11-21T17:32:26;3.50;;;3.40;;
19560;SDS011;9927;47.792;10.616;2023-11-21T17:34:54;3.13;;;3.07;;
19560;SDS011;9927;47.792;10.616;2023-11-21T17:37:23;2.90;;;2.80;;
19560;SDS011;9927;47.792;10.616;2023-11-21T17:39:51;3.33;;;3.13;;
19560;SDS011;9927;47.792;10.616;2023-11-21T17:42:18;2.90;;;2.90;;
19560;SDS011;9927;47.792;10.616;2023-11-21T17:44:45;2.83;;;2.77;;
19560;SDS011;9927;47.792;10.616;2023-11-21T17:47:13;3.63;;;3.53;;
19560;SDS011;9927;47.792;10.616;2023-11-21T17:49:40;4.63;;;4.43;;
19560;SDS011;9927;47.792;10.616;2023-11-21T17:52:07;4.10;;;4.00;;
19560;SDS011;9927;47.792;10.616;2023-11-21T17:54:34;4.40;;;4.23;;
19560;SDS011;9927;47.792;10.616;2023-11-21T17:57:03;4.00;;;3.90;;
19560;SDS011;9927;47.792;10.616;2023-11-21T17:59:31;3.57;;;3.47;;
19560;SDS011;9927;47.792;10.616;2023-11-21T18:01:58;3.20;;;3.10;;
19560;SDS011;9927;47.792;10.616;2023-11-21T18:04:25;3.20;;;3.10;;
19560;SDS011;9927;47.792;10.616;2023-11-21T18:06:53;6.33;;;5.97;;
19560;SDS011;9927;47.792;10.616;2023-11-21T18:09:20;5.30;;;5.10;;
19560;SDS011;9927;47.792;10.616;2023-11-21T18:11:47;6.40;;;5.77;;
19560;SDS011;9927;47.792;10.616;2023-11-21T18:14:15;8.67;;;7.87;;
19560;SDS011;9927;47.792;10.616;2023-11-21T18:16:42;11.03;;;10.03;;
19560;SDS011;9927;47.792;10.616;2023-11-21T18:19:09;11.73;;;10.53;;
19560;SDS011;9927;47.792;10.616;2023-11-21T18:21:37;11.70;;;10.63;;
19560;SDS011;9927;47.792;10.616;2023-11-21T18:24:08;11.63;;;10.20;;
19560;SDS011;9927;47.792;10.616;2023-11-21T18:26:36;9.90;;;8.63;;
19560;SDS011;9927;47.792;10.616;2023-11-21T18:29:03;7.47;;;6.87;;
19560;SDS011;9927;47.792;10.616;2023-11-21T18:31:31;6.80;;;6.30;;
19560;SDS011;9927;47.792;10.616;2023-11-21T18:33:58;6.57;;;6.17;;
19560;SDS011;9927;47.792;10.616;2023-11-21T18:36:26;8.10;;;7.30;;
19560;SDS011;9927;47.792;10.616;2023-11-21T18:38:53;7.57;;;6.87;;
19560;SDS011;9927;47.792;10.616;2023-11-21T18:41:21;9.53;;;8.63;;
19560;SDS011;9927;47.792;10.616;2023-11-21T18:43:49;8.13;;;7.53;;
19560;SDS011;9927;47.792;10.616;2023-11-21T18:46:17;7.40;;;6.80;;
19560;SDS011;9927;47.792;10.616;2023-11-21T18:48:45;8.30;;;7.50;;
19560;SDS011;9927;47.792;10.616;2023-11-21T18:51:14;6.90;;;6.33;;
19560;SDS011;9927;47.792;10.616;2023-11-21T18:53:41;7.67;;;7.00;;
19560;SDS011;9927;47.792;10.616;2023-11-21T18:56:17;7.23;;;6.73;;
19560;SDS011;9927;47.792;10.616;2023-11-21T18:58:46;6.87;;;6.37;;
19560;SDS011;9927;47.792;10.616;2023-11-21T19:01:23;7.10;;;6.60;;
19560;SDS011;9927;47.792;10.616;2023-11-21T19:03:57;7.20;;;6.60;;
19560;SDS011;9927;47.792;10.616;2023-11-21T19:06:25;6.50;;;6.10;;
19560;SDS011;9927;47.792;10.616;2023-11-21T19:08:53;6.93;;;6.33;;
19560;SDS011;9927;47.792;10.616;2023-11-21T19:11:21;6.17;;;5.77;;
19560;SDS011;9927;47.792;10.616;2023-11-21T19:13:48;6.40;;;6.00;;